sensor_id;sensor_type;location;lat;lon;timestamp;pressure;altitude;pressure_sealevel;temperature;humidity
83037;BME280;73029;43.592;1.458;2024-02-23T00:00:12;99019.34;;;9.87;60.71
83037;BME280;73029;43.592;1.458;2024-02-23T00:02:37;99022.75;;;9.90;60.55
83037;BME280;73029;43.592;1.458;2024-02-23T00:05:04;99016.75;;;9.85;60.03
83037;BME280;73029;43.592;1.458;2024-02-23T00:07:29;99025.44;;;9.89;60.93
83037;BME280;73029;43.592;1.458;2024-02-23T00:09:55;99011.59;;;9.82;60.81
83037;BME280;73029;43.592;1.458;2024-02-23T00:12:20;99011.41;;;9.88;60.57
83037;BME280;73029;43.592;1.458;2024-02-23T00:14:45;99004.53;;;9.83;60.00
83037;BME280;73029;43.592;1.458;2024-02-23T00:17:11;98994.84;;;9.83;60.75
83037;BME280;73029;43.592;1.458;2024-02-23T00:19:37;99011.34;;;9.90;60.64
83037;BME280;73029;43.592;1.458;2024-02-23T00:22:02;99002.69;;;9.85;60.33
83037;BME280;73029;43.592;1.458;2024-02-23T00:24:29;98987.06;;;9.79;60.89
83037;BME280;73029;43.592;1.458;2024-02-23T00:26:55;98976.72;;;9.73;60.61
83037;BME280;73029;43.592;1.458;2024-02-23T00:29:20;98993.19;;;9.79;60.35
83037;BME280;73029;43.592;1.458;2024-02-23T00:31:46;98992.47;;;9.76;60.63
83037;BME280;73029;43.592;1.458;2024-02-23T00:34:12;98994.19;;;9.77;60.88
83037;BME280;73029;43.592;1.458;2024-02-23T00:36:39;98988.03;;;9.76;60.58
83037;BME280;73029;43.592;1.458;2024-02-23T00:39:06;98989.97;;;9.71;60.71
83037;BME280;73029;43.592;1.458;2024-02-23T00:41:32;98990.69;;;9.75;60.07
83037;BME280;73029;43.592;1.458;2024-02-23T00:43:58;98975.00;;;9.71;60.58
83037;BME280;73029;43.592;1.458;2024-02-23T00:46:23;98983.88;;;9.69;60.75
83037;BME280;73029;43.592;1.458;2024-02-23T00:48:49;98968.28;;;9.61;60.52
83037;BME280;73029;43.592;1.458;2024-02-23T00:51:14;98978.03;;;9.59;60.80
83037;BME280;73029;43.592;1.458;2024-02-23T00:53:39;98988.47;;;9.62;59.84
83037;BME280;73029;43.592;1.458;2024-02-23T00:56:05;98979.81;;;9.59;59.81
83037;BME280;73029;43.592;1.458;2024-02-23T00:58:31;98964.31;;;9.48;60.29
83037;BME280;73029;43.592;1.458;2024-02-23T01:00:56;98954.81;;;9.42;60.69
83037;BME280;73029;43.592;1.458;2024-02-23T01:03:21;98967.09;;;9.43;60.57
83037;BME280;73029;43.592;1.458;2024-02-23T01:05:47;98961.13;;;9.38;60.86
83037;BME280;73029;43.592;1.458;2024-02-23T01:08:13;98953.34;;;9.34;60.35
83037;BME280;73029;43.592;1.458;2024-02-23T01:10:38;98955.19;;;9.30;61.10
83037;BME280;73029;43.592;1.458;2024-02-23T01:13:04;98948.16;;;9.31;60.41
83037;BME280;73029;43.592;1.458;2024-02-23T01:15:30;98943.06;;;9.25;60.35
83037;BME280;73029;43.592;1.458;2024-02-23T01:17:56;98949.06;;;9.30;60.81
83037;BME280;73029;43.592;1.458;2024-02-23T01:20:21;98946.53;;;9.27;61.27
83037;BME280;73029;43.592;1.458;2024-02-23T01:22:47;98964.09;;;9.28;60.88
83037;BME280;73029;43.592;1.458;2024-02-23T01:25:12;98964.22;;;9.23;60.54
83037;BME280;73029;43.592;1.458;2024-02-23T01:27:41;98964.31;;;9.20;60.59
83037;BME280;73029;43.592;1.458;2024-02-23T01:30:06;98953.91;;;9.15;60.72
83037;BME280;73029;43.592;1.458;2024-02-23T01:32:32;98961.88;;;9.14;61.20
83037;BME280;73029;43.592;1.458;2024-02-23T01:34:57;98971.66;;;9.10;61.14
83037;BME280;73029;43.592;1.458;2024-02-23T01:37:23;98969.13;;;9.07;61.06
83037;BME280;73029;43.592;1.458;2024-02-23T01:39:48;98948.41;;;8.95;61.11
83037;BME280;73029;43.592;1.458;2024-02-23T01:42:13;98944.13;;;8.91;61.09
83037;BME280;73029;43.592;1.458;2024-02-23T01:44:39;98940.69;;;8.89;60.79
83037;BME280;73029;43.592;1.458;2024-02-23T01:47:04;98949.44;;;8.89;62.18
83037;BME280;73029;43.592;1.458;2024-02-23T01:49:30;98942.56;;;8.84;62.04
83037;BME280;73029;43.592;1.458;2024-02-23T01:51:58;98924.44;;;8.73;61.66
83037;BME280;73029;43.592;1.458;2024-02-23T01:54:24;98919.22;;;8.72;62.18
83037;BME280;73029;43.592;1.458;2024-02-23T01:56:51;98915.81;;;8.68;62.33
83037;BME280;73029;43.592;1.458;2024-02-23T01:59:17;98895.88;;;8.59;62.63
83037;BME280;73029;43.592;1.458;2024-02-23T02:01:45;98910.53;;;8.68;62.53
83037;BME280;73029;43.592;1.458;2024-02-23T02:04:10;98892.28;;;8.62;62.87
83037;BME280;73029;43.592;1.458;2024-02-23T02:06:36;98895.81;;;8.61;63.34
83037;BME280;73029;43.592;1.458;2024-02-23T02:09:01;98895.88;;;8.59;62.38
83037;BME280;73029;43.592;1.458;2024-02-23T02:11:27;98897.47;;;8.65;62.61
83037;BME280;73029;43.592;1.458;2024-02-23T02:13:52;98893.97;;;8.65;63.16
83037;BME280;73029;43.592;1.458;2024-02-23T02:16:18;98884.38;;;8.62;63.26
83037;BME280;73029;43.592;1.458;2024-02-23T02:18:43;98872.13;;;8.61;62.70
83037;BME280;73029;43.592;1.458;2024-02-23T02:21:09;98875.56;;;8.63;62.82
83037;BME280;73029;43.592;1.458;2024-02-23T02:23:35;98880.75;;;8.66;62.73
83037;BME280;73029;43.592;1.458;2024-02-23T02:26:02;98894.66;;;8.71;63.06
83037;BME280;73029;43.592;1.458;2024-02-23T02:28:28;98865.91;;;8.63;62.50
83037;BME280;73029;43.592;1.458;2024-02-23T02:30:53;98880.63;;;8.71;62.92
83037;BME280;73029;43.592;1.458;2024-02-23T02:33:19;98891.91;;;8.74;62.15
83037;BME280;73029;43.592;1.458;2024-02-23T02:35:44;98890.13;;;8.75;62.38
83037;BME280;73029;43.592;1.458;2024-02-23T02:38:13;98872.59;;;8.74;61.72
83037;BME280;73029;43.592;1.458;2024-02-23T02:40:39;98881.13;;;8.82;62.19
83037;BME280;73029;43.592;1.458;2024-02-23T02:43:04;98884.50;;;8.87;62.62
83037;BME280;73029;43.592;1.458;2024-02-23T02:45:30;98868.88;;;8.81;61.87
83037;BME280;73029;43.592;1.458;2024-02-23T02:47:56;98869.66;;;8.84;62.60
83037;BME280;73029;43.592;1.458;2024-02-23T02:50:21;98877.44;;;8.89;62.28
83037;BME280;73029;43.592;1.458;2024-02-23T02:52:47;98874.78;;;8.89;62.59
83037;BME280;73029;43.592;1.458;2024-02-23T02:55:13;98875.69;;;8.88;62.66
83037;BME280;73029;43.592;1.458;2024-02-23T02:57:38;98858.25;;;8.84;62.76
83037;BME280;73029;43.592;1.458;2024-02-23T03:00:04;98858.19;;;8.85;63.14
83037;BME280;73029;43.592;1.458;2024-02-23T03:02:33;98847.78;;;8.81;62.73
83037;BME280;73029;43.592;1.458;2024-02-23T03:04:58;98847.00;;;8.79;62.61
83037;BME280;73029;43.592;1.458;2024-02-23T03:07:24;98855.88;;;8.75;63.29
83037;BME280;73029;43.592;1.458;2024-02-23T03:09:49;98847.28;;;8.70;63.16
83037;BME280;73029;43.592;1.458;2024-02-23T03:12:16;98842.88;;;8.70;62.17
83037;BME280;73029;43.592;1.458;2024-02-23T03:14:41;98853.25;;;8.75;62.58
83037;BME280;73029;43.592;1.458;2024-02-23T03:17:07;98832.47;;;8.66;62.58
83037;BME280;73029;43.592;1.458;2024-02-23T03:19:33;98829.22;;;8.57;61.64
83037;BME280;73029;43.592;1.458;2024-02-23T03:21:59;98836.97;;;8.62;62.23
83037;BME280;73029;43.592;1.458;2024-02-23T03:24:24;98838.00;;;8.58;61.85
83037;BME280;73029;43.592;1.458;2024-02-23T03:26:49;98851.19;;;8.56;62.46
83037;BME280;73029;43.592;1.458;2024-02-23T03:29:15;98844.97;;;8.59;61.98
83037;BME280;73029;43.592;1.458;2024-02-23T03:31:41;98834.81;;;8.47;61.64
83037;BME280;73029;43.592;1.458;2024-02-23T03:34:06;98832.25;;;8.44;61.42
83037;BME280;73029;43.592;1.458;2024-02-23T03:36:31;98836.59;;;8.46;61.46
83037;BME280;73029;43.592;1.458;2024-02-23T03:38:57;98840.25;;;8.41;61.95
83037;BME280;73029;43.592;1.458;2024-02-23T03:41:22;98817.69;;;8.30;62.55
83037;BME280;73029;43.592;1.458;2024-02-23T03:43:47;98816.75;;;8.33;62.25
83037;BME280;73029;43.592;1.458;2024-02-23T03:46:13;98825.53;;;8.32;61.92
83037;BME280;73029;43.592;1.458;2024-02-23T03:48:40;98820.31;;;8.30;62.25
83037;BME280;73029;43.592;1.458;2024-02-23T03:51:05;98815.00;;;8.32;62.30
83037;BME280;73029;43.592;1.458;2024-02-23T03:53:31;98816.09;;;8.25;61.79
83037;BME280;73029;43.592;1.458;2024-02-23T03:55:57;98799.56;;;8.21;61.33
83037;BME280;73029;43.592;1.458;2024-02-23T03:58:22;98803.00;;;8.23;61.79
83037;BME280;73029;43.592;1.458;2024-02-23T04:00:47;98802.81;;;8.29;62.15
83037;BME280;73029;43.592;1.458;2024-02-23T04:03:13;98801.16;;;8.25;62.34
83037;BME280;73029;43.592;1.458;2024-02-23T04:05:38;98790.88;;;8.18;62.08
83037;BME280;73029;43.592;1.458;2024-02-23T04:08:04;98801.22;;;8.24;61.89
83037;BME280;73029;43.592;1.458;2024-02-23T04:10:29;98790.81;;;8.19;62.15
83037;BME280;73029;43.592;1.458;2024-02-23T04:12:55;98790.25;;;8.09;62.75
83037;BME280;73029;43.592;1.458;2024-02-23T04:15:20;98791.91;;;8.14;62.52
83037;BME280;73029;43.592;1.458;2024-02-23T04:17:46;98792.75;;;8.14;62.24
83037;BME280;73029;43.592;1.458;2024-02-23T04:20:11;98783.88;;;8.17;62.77
83037;BME280;73029;43.592;1.458;2024-02-23T04:22:37;98780.41;;;8.16;62.49
83037;BME280;73029;43.592;1.458;2024-02-23T04:25:03;98781.25;;;8.17;62.57
83037;BME280;73029;43.592;1.458;2024-02-23T04:27:30;98775.88;;;8.20;62.75
83037;BME280;73029;43.592;1.458;2024-02-23T04:29:55;98794.25;;;8.23;61.88
83037;BME280;73029;43.592;1.458;2024-02-23T04:32:21;98806.63;;;8.19;62.21
83037;BME280;73029;43.592;1.458;2024-02-23T04:34:47;98788.41;;;8.12;62.73
83037;BME280;73029;43.592;1.458;2024-02-23T04:37:12;98787.56;;;8.11;62.81
83037;BME280;73029;43.592;1.458;2024-02-23T04:39:37;98791.06;;;8.12;63.04
83037;BME280;73029;43.592;1.458;2024-02-23T04:42:04;98787.56;;;8.11;62.99
83037;BME280;73029;43.592;1.458;2024-02-23T04:44:29;98786.53;;;8.17;63.08
83037;BME280;73029;43.592;1.458;2024-02-23T04:46:55;98787.19;;;8.23;62.45
83037;BME280;73029;43.592;1.458;2024-02-23T04:49:20;98776.00;;;8.17;62.44
83037;BME280;73029;43.592;1.458;2024-02-23T04:51:46;98795.22;;;8.19;62.40
83037;BME280;73029;43.592;1.458;2024-02-23T04:54:11;98784.69;;;8.19;62.12
83037;BME280;73029;43.592;1.458;2024-02-23T04:56:36;98778.38;;;8.24;62.84
83037;BME280;73029;43.592;1.458;2024-02-23T04:59:02;98759.09;;;8.24;62.06
83037;BME280;73029;43.592;1.458;2024-02-23T05:01:27;98740.19;;;8.11;62.22
83037;BME280;73029;43.592;1.458;2024-02-23T05:03:53;98779.06;;;8.31;62.08
83037;BME280;73029;43.592;1.458;2024-02-23T05:06:18;98765.91;;;8.31;61.89
83037;BME280;73029;43.592;1.458;2024-02-23T05:08:43;98758.19;;;8.25;61.93
83037;BME280;73029;43.592;1.458;2024-02-23T05:11:09;98766.06;;;8.26;61.63
83037;BME280;73029;43.592;1.458;2024-02-23T05:13:35;98766.06;;;8.26;61.99
83037;BME280;73029;43.592;1.458;2024-02-23T05:16:00;98749.47;;;8.23;62.34
83037;BME280;73029;43.592;1.458;2024-02-23T05:18:25;98775.53;;;8.32;61.89
83037;BME280;73029;43.592;1.458;2024-02-23T05:20:51;98779.03;;;8.32;61.23
83037;BME280;73029;43.592;1.458;2024-02-23T05:23:17;98767.59;;;8.33;62.51
83037;BME280;73029;43.592;1.458;2024-02-23T05:25:42;98766.69;;;8.34;61.92
83037;BME280;73029;43.592;1.458;2024-02-23T05:28:08;98758.88;;;8.31;61.64
83037;BME280;73029;43.592;1.458;2024-02-23T05:30:33;98754.47;;;8.32;62.21
83037;BME280;73029;43.592;1.458;2024-02-23T05:32:58;98748.31;;;8.33;61.34
83037;BME280;73029;43.592;1.458;2024-02-23T05:35:27;98756.94;;;8.38;61.56
83037;BME280;73029;43.592;1.458;2024-02-23T05:37:52;98763.91;;;8.41;60.94
83037;BME280;73029;43.592;1.458;2024-02-23T05:40:18;98764.69;;;8.43;61.95
83037;BME280;73029;43.592;1.458;2024-02-23T05:42:43;98749.19;;;8.32;61.16
83037;BME280;73029;43.592;1.458;2024-02-23T05:45:09;98769.06;;;8.44;61.52
83037;BME280;73029;43.592;1.458;2024-02-23T05:47:38;98775.09;;;8.47;60.74
83037;BME280;73029;43.592;1.458;2024-02-23T05:50:04;98780.38;;;8.47;61.06
83037;BME280;73029;43.592;1.458;2024-02-23T05:52:33;98781.16;;;8.49;61.27
83037;BME280;73029;43.592;1.458;2024-02-23T05:54:59;98753.44;;;8.38;61.59
83037;BME280;73029;43.592;1.458;2024-02-23T05:57:28;98766.53;;;8.41;60.68
83037;BME280;73029;43.592;1.458;2024-02-23T05:59:54;98780.44;;;8.44;60.59
83037;BME280;73029;43.592;1.458;2024-02-23T06:02:21;98780.44;;;8.44;61.38
83037;BME280;73029;43.592;1.458;2024-02-23T06:04:46;98763.09;;;8.39;61.01
83037;BME280;73029;43.592;1.458;2024-02-23T06:07:13;98793.41;;;8.50;60.83
83037;BME280;73029;43.592;1.458;2024-02-23T06:09:38;98772.53;;;8.46;61.01
83037;BME280;73029;43.592;1.458;2024-02-23T06:12:05;98741.47;;;8.26;60.81
83037;BME280;73029;43.592;1.458;2024-02-23T06:14:30;98788.22;;;8.49;60.83
83037;BME280;73029;43.592;1.458;2024-02-23T06:16:56;98789.00;;;8.51;60.84
83037;BME280;73029;43.592;1.458;2024-02-23T06:19:21;98783.81;;;8.49;61.46
83037;BME280;73029;43.592;1.458;2024-02-23T06:21:49;98779.44;;;8.48;60.91
83037;BME280;73029;43.592;1.458;2024-02-23T06:24:15;98784.78;;;8.47;60.80
83037;BME280;73029;43.592;1.458;2024-02-23T06:26:41;98784.81;;;8.45;60.52
83037;BME280;73029;43.592;1.458;2024-02-23T06:29:06;98777.13;;;8.39;61.69
83037;BME280;73029;43.592;1.458;2024-02-23T06:31:36;98769.16;;;8.41;60.67
83037;BME280;73029;43.592;1.458;2024-02-23T06:34:02;98768.38;;;8.37;60.84
83037;BME280;73029;43.592;1.458;2024-02-23T06:36:27;98784.09;;;8.40;61.78
83037;BME280;73029;43.592;1.458;2024-02-23T06:38:53;98770.38;;;8.29;61.52
83037;BME280;73029;43.592;1.458;2024-02-23T06:41:18;98782.56;;;8.31;61.52
83037;BME280;73029;43.592;1.458;2024-02-23T06:43:43;98789.59;;;8.31;61.12
83037;BME280;73029;43.592;1.458;2024-02-23T06:46:09;98788.53;;;8.38;61.58
83037;BME280;73029;43.592;1.458;2024-02-23T06:48:35;98781.59;;;8.35;62.26
83037;BME280;73029;43.592;1.458;2024-02-23T06:51:02;98791.16;;;8.38;61.07
83037;BME280;73029;43.592;1.458;2024-02-23T06:53:29;98783.34;;;8.35;61.12
83037;BME280;73029;43.592;1.458;2024-02-23T06:55:54;98785.03;;;8.38;61.09
83037;BME280;73029;43.592;1.458;2024-02-23T06:58:19;98790.38;;;8.34;61.37
83037;BME280;73029;43.592;1.458;2024-02-23T07:00:45;98786.88;;;8.34;61.76
83037;BME280;73029;43.592;1.458;2024-02-23T07:03:11;98796.44;;;8.38;61.57
83037;BME280;73029;43.592;1.458;2024-02-23T07:05:36;98814.84;;;8.40;61.34
83037;BME280;73029;43.592;1.458;2024-02-23T07:08:02;98809.75;;;8.32;61.55
83037;BME280;73029;43.592;1.458;2024-02-23T07:10:27;98800.47;;;8.20;61.68
83037;BME280;73029;43.592;1.458;2024-02-23T07:12:53;98805.72;;;8.20;62.32
83037;BME280;73029;43.592;1.458;2024-02-23T07:15:19;98817.88;;;8.24;63.13
83037;BME280;73029;43.592;1.458;2024-02-23T07:17:45;98804.22;;;8.12;62.92
83037;BME280;73029;43.592;1.458;2024-02-23T07:20:11;98807.63;;;8.15;63.51
83037;BME280;73029;43.592;1.458;2024-02-23T07:22:37;98811.06;;;8.17;63.68
83037;BME280;73029;43.592;1.458;2024-02-23T07:25:02;98814.75;;;8.12;63.24
83037;BME280;73029;43.592;1.458;2024-02-23T07:27:29;98816.63;;;8.08;63.78
83037;BME280;73029;43.592;1.458;2024-02-23T07:29:56;98797.59;;;7.98;64.35
83037;BME280;73029;43.592;1.458;2024-02-23T07:32:21;98793.97;;;8.02;64.50
83037;BME280;73029;43.592;1.458;2024-02-23T07:34:46;98792.16;;;8.04;64.29
83037;BME280;73029;43.592;1.458;2024-02-23T07:37:13;98802.50;;;8.10;64.47
83037;BME280;73029;43.592;1.458;2024-02-23T07:39:38;98803.31;;;8.13;63.97
83037;BME280;73029;43.592;1.458;2024-02-23T07:42:04;98809.41;;;8.15;63.80
83037;BME280;73029;43.592;1.458;2024-02-23T07:44:31;98799.72;;;8.15;64.24
83037;BME280;73029;43.592;1.458;2024-02-23T07:46:56;98798.16;;;8.09;64.77
83037;BME280;73029;43.592;1.458;2024-02-23T07:49:23;98799.63;;;8.18;64.28
83037;BME280;73029;43.592;1.458;2024-02-23T07:51:49;98812.66;;;8.23;63.69
83037;BME280;73029;43.592;1.458;2024-02-23T07:54:14;98817.16;;;8.19;63.89
83037;BME280;73029;43.592;1.458;2024-02-23T07:56:40;98803.97;;;8.19;63.32
83037;BME280;73029;43.592;1.458;2024-02-23T07:59:05;98765.88;;;8.03;63.94
83037;BME280;73029;43.592;1.458;2024-02-23T08:01:31;98795.91;;;8.25;64.16
83037;BME280;73029;43.592;1.458;2024-02-23T08:03:57;98796.59;;;8.32;64.21
83037;BME280;73029;43.592;1.458;2024-02-23T08:06:22;98778.13;;;8.33;63.08
83037;BME280;73029;43.592;1.458;2024-02-23T08:08:48;98766.75;;;8.33;63.21
83037;BME280;73029;43.592;1.458;2024-02-23T08:11:13;98766.75;;;8.31;62.62
83037;BME280;73029;43.592;1.458;2024-02-23T08:13:39;98771.00;;;8.39;63.03
83037;BME280;73029;43.592;1.458;2024-02-23T08:16:05;98784.66;;;8.50;62.49
83037;BME280;73029;43.592;1.458;2024-02-23T08:18:31;98776.75;;;8.51;61.62
83037;BME280;73029;43.592;1.458;2024-02-23T08:20:57;98788.81;;;8.58;62.33
83037;BME280;73029;43.592;1.458;2024-02-23T08:23:23;98753.22;;;8.45;61.39
83037;BME280;73029;43.592;1.458;2024-02-23T08:25:49;98790.22;;;8.69;62.07
83037;BME280;73029;43.592;1.458;2024-02-23T08:28:15;98784.00;;;8.71;62.26
83037;BME280;73029;43.592;1.458;2024-02-23T08:30:41;98792.53;;;8.79;60.18
83037;BME280;73029;43.592;1.458;2024-02-23T08:33:06;98792.53;;;8.79;60.43
83037;BME280;73029;43.592;1.458;2024-02-23T08:35:35;98781.44;;;8.68;60.66
83037;BME280;73029;43.592;1.458;2024-02-23T08:38:01;98800.28;;;8.84;59.81
83037;BME280;73029;43.592;1.458;2024-02-23T08:40:27;98789.13;;;8.76;59.85
83037;BME280;73029;43.592;1.458;2024-02-23T08:42:52;98801.19;;;8.83;60.76
83037;BME280;73029;43.592;1.458;2024-02-23T08:45:18;98787.16;;;8.82;60.62
83037;BME280;73029;43.592;1.458;2024-02-23T08:47:43;98804.63;;;8.85;59.81
83037;BME280;73029;43.592;1.458;2024-02-23T08:50:08;98836.00;;;8.93;60.73
83037;BME280;73029;43.592;1.458;2024-02-23T08:52:34;98802.00;;;8.85;59.32
83037;BME280;73029;43.592;1.458;2024-02-23T08:55:00;98815.97;;;8.87;60.28
83037;BME280;73029;43.592;1.458;2024-02-23T08:57:26;98815.19;;;8.85;60.09
83037;BME280;73029;43.592;1.458;2024-02-23T08:59:52;98815.97;;;8.88;59.85
83037;BME280;73029;43.592;1.458;2024-02-23T09:02:18;98796.72;;;8.85;60.65
83037;BME280;73029;43.592;1.458;2024-02-23T09:04:44;98824.31;;;9.01;59.89
83037;BME280;73029;43.592;1.458;2024-02-23T09:07:11;98814.88;;;8.94;59.20
83037;BME280;73029;43.592;1.458;2024-02-23T09:09:36;98794.50;;;8.99;60.22
83037;BME280;73029;43.592;1.458;2024-02-23T09:12:01;98805.69;;;9.07;60.01
83037;BME280;73029;43.592;1.458;2024-02-23T09:14:27;98819.47;;;9.15;58.89
83037;BME280;73029;43.592;1.458;2024-02-23T09:16:52;98825.72;;;9.11;58.14
83037;BME280;73029;43.592;1.458;2024-02-23T09:19:18;98813.59;;;9.07;58.53
83037;BME280;73029;43.592;1.458;2024-02-23T09:21:44;98808.47;;;9.03;58.92
83037;BME280;73029;43.592;1.458;2024-02-23T09:24:10;98817.81;;;9.11;59.26
83037;BME280;73029;43.592;1.458;2024-02-23T09:26:35;98812.47;;;9.14;58.91
83037;BME280;73029;43.592;1.458;2024-02-23T09:29:01;98824.53;;;9.22;58.68
83037;BME280;73029;43.592;1.458;2024-02-23T09:31:26;98820.19;;;9.21;57.83
83037;BME280;73029;43.592;1.458;2024-02-23T09:33:54;98813.97;;;9.22;58.02
83037;BME280;73029;43.592;1.458;2024-02-23T09:36:20;98800.34;;;9.09;58.35
83037;BME280;73029;43.592;1.458;2024-02-23T09:38:45;98815.00;;;9.17;58.31
83037;BME280;73029;43.592;1.458;2024-02-23T09:41:19;98808.66;;;9.23;58.32
83037;BME280;73029;43.592;1.458;2024-02-23T09:43:46;98819.13;;;9.25;58.34
83037;BME280;73029;43.592;1.458;2024-02-23T09:46:13;98807.84;;;9.21;58.30
83037;BME280;73029;43.592;1.458;2024-02-23T09:48:39;98826.31;;;9.21;57.77
83037;BME280;73029;43.592;1.458;2024-02-23T09:51:06;98818.19;;;9.27;58.97
83037;BME280;73029;43.592;1.458;2024-02-23T09:53:37;98823.06;;;9.39;58.61
83037;BME280;73029;43.592;1.458;2024-02-23T09:56:03;98821.16;;;9.43;58.11
83037;BME280;73029;43.592;1.458;2024-02-23T09:58:30;98830.09;;;9.39;57.97
83037;BME280;73029;43.592;1.458;2024-02-23T10:00:59;98838.72;;;9.44;57.60
83037;BME280;73029;43.592;1.458;2024-02-23T10:03:27;98833.66;;;9.38;58.13
83037;BME280;73029;43.592;1.458;2024-02-23T10:05:59;98840.75;;;9.36;58.41
83037;BME280;73029;43.592;1.458;2024-02-23T10:08:29;98841.72;;;9.33;58.29
83037;BME280;73029;43.592;1.458;2024-02-23T10:10:56;98851.34;;;9.34;59.25
83037;BME280;73029;43.592;1.458;2024-02-23T10:13:23;98859.25;;;9.34;58.47
83037;BME280;73029;43.592;1.458;2024-02-23T10:15:51;98836.91;;;9.20;59.13
83037;BME280;73029;43.592;1.458;2024-02-23T10:18:17;98841.66;;;9.08;60.14
83037;BME280;73029;43.592;1.458;2024-02-23T10:20:43;98861.03;;;9.07;61.17
83037;BME280;73029;43.592;1.458;2024-02-23T10:23:09;98854.22;;;9.00;62.97
83037;BME280;73029;43.592;1.458;2024-02-23T10:25:35;98869.03;;;9.04;61.88
83037;BME280;73029;43.592;1.458;2024-02-23T10:28:05;98855.19;;;8.98;62.78
83037;BME280;73029;43.592;1.458;2024-02-23T10:30:30;98857.75;;;8.99;61.99
83037;BME280;73029;43.592;1.458;2024-02-23T10:32:56;98863.09;;;8.98;61.12
83037;BME280;73029;43.592;1.458;2024-02-23T10:35:23;98889.56;;;8.93;61.30
83037;BME280;73029;43.592;1.458;2024-02-23T10:37:50;98866.06;;;8.87;61.35
83037;BME280;73029;43.592;1.458;2024-02-23T10:40:16;98846.75;;;8.86;60.94
83037;BME280;73029;43.592;1.458;2024-02-23T10:42:47;98852.44;;;8.73;61.99
83037;BME280;73029;43.592;1.458;2024-02-23T10:45:20;98847.91;;;8.78;62.85
83037;BME280;73029;43.592;1.458;2024-02-23T10:47:48;98906.63;;;8.81;62.32
83037;BME280;73029;43.592;1.458;2024-02-23T10:50:14;98842.47;;;8.54;62.31
83037;BME280;73029;43.592;1.458;2024-02-23T10:52:42;98863.09;;;8.70;63.50
83037;BME280;73029;43.592;1.458;2024-02-23T10:55:08;98856.91;;;8.71;63.57
83037;BME280;73029;43.592;1.458;2024-02-23T10:57:35;98869.13;;;8.73;63.93
83037;BME280;73029;43.592;1.458;2024-02-23T11:00:01;98850.00;;;8.67;63.53
83037;BME280;73029;43.592;1.458;2024-02-23T11:02:31;98855.00;;;8.76;63.75
83037;BME280;73029;43.592;1.458;2024-02-23T11:04:59;98860.28;;;8.74;64.25
83037;BME280;73029;43.592;1.458;2024-02-23T11:07:25;98868.19;;;8.74;63.76
83037;BME280;73029;43.592;1.458;2024-02-23T11:10:00;98880.28;;;8.81;63.43
83037;BME280;73029;43.592;1.458;2024-02-23T11:12:28;98864.75;;;8.72;63.08
83037;BME280;73029;43.592;1.458;2024-02-23T11:14:58;98906.69;;;8.80;64.65
83037;BME280;73029;43.592;1.458;2024-02-23T11:17:27;98882.91;;;8.81;64.77
83037;BME280;73029;43.592;1.458;2024-02-23T11:19:54;98860.34;;;8.73;64.02
83037;BME280;73029;43.592;1.458;2024-02-23T11:22:33;98877.81;;;8.77;64.53
83037;BME280;73029;43.592;1.458;2024-02-23T11:25:04;98869.91;;;8.75;63.74
83037;BME280;73029;43.592;1.458;2024-02-23T11:27:37;98883.06;;;8.77;64.83
83037;BME280;73029;43.592;1.458;2024-02-23T11:30:07;98890.81;;;8.81;64.62
83037;BME280;73029;43.592;1.458;2024-02-23T11:32:44;98883.94;;;8.77;64.05
83037;BME280;73029;43.592;1.458;2024-02-23T11:35:12;98878.97;;;8.67;64.53
83037;BME280;73029;43.592;1.458;2024-02-23T11:40:13;98879.03;;;8.65;65.99
83037;BME280;73029;43.592;1.458;2024-02-23T11:42:42;98883.50;;;8.61;65.21
83037;BME280;73029;43.592;1.458;2024-02-23T11:45:09;98873.28;;;8.52;65.00
83037;BME280;73029;43.592;1.458;2024-02-23T11:47:36;98881.19;;;8.52;64.85
83037;BME280;73029;43.592;1.458;2024-02-23T11:50:02;98875.06;;;8.50;65.42
83037;BME280;73029;43.592;1.458;2024-02-23T11:52:27;98868.19;;;8.46;65.66
83037;BME280;73029;43.592;1.458;2024-02-23T11:54:53;98856.88;;;8.43;65.61
83037;BME280;73029;43.592;1.458;2024-02-23T11:57:18;98868.06;;;8.49;65.85
83037;BME280;73029;43.592;1.458;2024-02-23T11:59:44;98858.59;;;8.44;66.08
83037;BME280;73029;43.592;1.458;2024-02-23T12:02:09;98856.88;;;8.43;65.16
83037;BME280;73029;43.592;1.458;2024-02-23T12:04:35;98861.19;;;8.45;66.29
83037;BME280;73029;43.592;1.458;2024-02-23T12:07:00;98855.81;;;8.48;65.69
83037;BME280;73029;43.592;1.458;2024-02-23T12:09:26;98860.13;;;8.51;65.40
83037;BME280;73029;43.592;1.458;2024-02-23T12:11:51;98847.78;;;8.53;65.73
83037;BME280;73029;43.592;1.458;2024-02-23T12:14:17;98829.25;;;8.56;65.41
83037;BME280;73029;43.592;1.458;2024-02-23T12:16:43;98832.28;;;8.72;64.94
83037;BME280;73029;43.592;1.458;2024-02-23T12:19:08;98835.66;;;8.77;64.34
83037;BME280;73029;43.592;1.458;2024-02-23T12:21:34;98823.28;;;8.79;64.23
83037;BME280;73029;43.592;1.458;2024-02-23T12:24:04;98818.41;;;8.95;63.97
83037;BME280;73029;43.592;1.458;2024-02-23T12:26:31;98802.41;;;8.99;64.63
83037;BME280;73029;43.592;1.458;2024-02-23T12:29:03;98813.38;;;9.13;63.04
83037;BME280;73029;43.592;1.458;2024-02-23T12:31:29;98806.94;;;9.22;63.10
83037;BME280;73029;43.592;1.458;2024-02-23T12:33:57;98799.69;;;9.29;63.02
83037;BME280;73029;43.592;1.458;2024-02-23T12:36:22;98842.47;;;9.37;61.35
83037;BME280;73029;43.592;1.458;2024-02-23T12:38:48;98779.50;;;9.28;60.59
83037;BME280;73029;43.592;1.458;2024-02-23T12:41:14;98816.81;;;9.42;60.27
83037;BME280;73029;43.592;1.458;2024-02-23T12:43:39;98793.00;;;9.43;60.61
83037;BME280;73029;43.592;1.458;2024-02-23T12:46:05;98796.28;;;9.50;60.87
83037;BME280;73029;43.592;1.458;2024-02-23T12:48:31;98801.25;;;9.59;60.15
83037;BME280;73029;43.592;1.458;2024-02-23T12:50:57;98797.63;;;9.62;59.39
83037;BME280;73029;43.592;1.458;2024-02-23T12:53:42;98800.97;;;9.67;58.12
83037;BME280;73029;43.592;1.458;2024-02-23T12:56:12;98788.78;;;9.64;58.12
83037;BME280;73029;43.592;1.458;2024-02-23T12:58:42;98772.59;;;9.74;57.75
83037;BME280;73029;43.592;1.458;2024-02-23T13:01:09;98783.78;;;9.80;58.30
83037;BME280;73029;43.592;1.458;2024-02-23T13:03:36;98769.66;;;9.81;57.49
83037;BME280;73029;43.592;1.458;2024-02-23T13:06:02;98769.56;;;9.84;57.30